sensor_id;sensor_type;location;lat;lon;timestamp;P1;durP1;ratioP1;P2;durP2;ratioP2
15022;SDS011;19850;49.576;10.880;2023-04-15T00:04:04;13.60;;;7.33;;
15022;SDS011;19850;49.576;10.880;2023-04-15T00:08:06;12.60;;;7.47;;
15022;SDS011;19850;49.576;10.880;2023-04-15T00:12:09;14.00;;;8.00;;
15022;SDS011;19850;49.576;10.880;2023-04-15T00:16:13;14.47;;;8.03;;
15022;SDS011;19850;49.576;10.880;2023-04-15T00:20:17;10.17;;;6.53;;
15022;SDS011;19850;49.576;10.880;2023-04-15T00:24:20;8.77;;;5.90;;
15022;SDS011;19850;49.576;10.880;2023-04-15T00:28:23;5.57;;;4.83;;
15022;SDS011;19850;49.576;10.880;2023-04-15T00:32:26;5.67;;;4.50;;
15022;SDS011;19850;49.576;10.880;2023-04-15T00:36:31;6.63;;;4.90;;
15022;SDS011;19850;49.576;10.880;2023-04-15T00:40:35;6.43;;;4.73;;
15022;SDS011;19850;49.576;10.880;2023-04-15T00:44:38;5.20;;;4.30;;
15022;SDS011;19850;49.576;10.880;2023-04-15T00:48:41;5.00;;;4.10;;
15022;SDS011;19850;49.576;10.880;2023-04-15T00:52:45;4.60;;;3.87;;
15022;SDS011;19850;49.576;10.880;2023-04-15T00:56:48;4.50;;;4.10;;
15022;SDS011;19850;49.576;10.880;2023-04-15T01:00:51;4.60;;;4.20;;
15022;SDS011;19850;49.576;10.880;2023-04-15T01:04:55;4.00;;;3.70;;
15022;SDS011;19850;49.576;10.880;2023-04-15T01:08:59;4.10;;;2.90;;
15022;SDS011;19850;49.576;10.880;2023-04-15T01:13:03;3.63;;;3.20;;
15022;SDS011;19850;49.576;10.880;2023-04-15T01:17:07;3.60;;;3.30;;
15022;SDS011;19850;49.576;10.880;2023-04-15T01:21:10;3.43;;;3.00;;
15022;SDS011;19850;49.576;10.880;2023-04-15T01:25:17;3.70;;;3.40;;
15022;SDS011;19850;49.576;10.880;2023-04-15T01:29:21;3.40;;;2.80;;
15022;SDS011;19850;49.576;10.880;2023-04-15T01:33:24;3.10;;;2.80;;
15022;SDS011;19850;49.576;10.880;2023-04-15T01:37:27;4.00;;;3.40;;
15022;SDS011;19850;49.576;10.880;2023-04-15T01:41:31;4.37;;;3.13;;
15022;SDS011;19850;49.576;10.880;2023-04-15T01:45:35;3.40;;;3.10;;
15022;SDS011;19850;49.576;10.880;2023-04-15T01:49:38;2.77;;;2.57;;
15022;SDS011;19850;49.576;10.880;2023-04-15T01:53:41;3.50;;;2.80;;
15022;SDS011;19850;49.576;10.880;2023-04-15T01:57:43;3.70;;;3.40;;
15022;SDS011;19850;49.576;10.880;2023-04-15T02:01:48;3.80;;;3.50;;
15022;SDS011;19850;49.576;10.880;2023-04-15T02:05:52;5.10;;;3.10;;
15022;SDS011;19850;49.576;10.880;2023-04-15T02:09:55;3.93;;;3.33;;
15022;SDS011;19850;49.576;10.880;2023-04-15T02:13:58;4.67;;;3.43;;
15022;SDS011;19850;49.576;10.880;2023-04-15T02:18:02;3.50;;;3.20;;
15022;SDS011;19850;49.576;10.880;2023-04-15T02:22:05;3.53;;;3.23;;
15022;SDS011;19850;49.576;10.880;2023-04-15T02:26:09;3.17;;;2.97;;
15022;SDS011;19850;49.576;10.880;2023-04-15T02:30:12;3.10;;;2.63;;
15022;SDS011;19850;49.576;10.880;2023-04-15T02:34:16;3.53;;;3.23;;
15022;SDS011;19850;49.576;10.880;2023-04-15T02:38:19;2.67;;;2.47;;
15022;SDS011;19850;49.576;10.880;2023-04-15T02:42:22;3.23;;;2.93;;
15022;SDS011;19850;49.576;10.880;2023-04-15T02:46:27;3.80;;;2.83;;
15022;SDS011;19850;49.576;10.880;2023-04-15T02:50:32;2.97;;;2.70;;
15022;SDS011;19850;49.576;10.880;2023-04-15T02:54:35;3.13;;;2.83;;
15022;SDS011;19850;49.576;10.880;2023-04-15T02:58:38;4.73;;;3.30;;
15022;SDS011;19850;49.576;10.880;2023-04-15T03:02:41;3.33;;;3.03;;
15022;SDS011;19850;49.576;10.880;2023-04-15T03:06:45;3.53;;;3.23;;
15022;SDS011;19850;49.576;10.880;2023-04-15T03:10:48;3.53;;;3.23;;
15022;SDS011;19850;49.576;10.880;2023-04-15T03:14:53;3.63;;;3.33;;
15022;SDS011;19850;49.576;10.880;2023-04-15T03:18:56;3.77;;;3.33;;
15022;SDS011;19850;49.576;10.880;2023-04-15T03:23:01;3.60;;;3.30;;
15022;SDS011;19850;49.576;10.880;2023-04-15T03:27:04;3.77;;;3.47;;
15022;SDS011;19850;49.576;10.880;2023-04-15T03:31:08;4.10;;;3.70;;
15022;SDS011;19850;49.576;10.880;2023-04-15T03:35:11;4.03;;;3.73;;
15022;SDS011;19850;49.576;10.880;2023-04-15T03:39:15;3.57;;;3.37;;
15022;SDS011;19850;49.576;10.880;2023-04-15T03:43:18;4.67;;;3.90;;
15022;SDS011;19850;49.576;10.880;2023-04-15T03:47:21;4.50;;;4.10;;
15022;SDS011;19850;49.576;10.880;2023-04-15T03:51:27;4.70;;;4.20;;
15022;SDS011;19850;49.576;10.880;2023-04-15T03:55:31;4.03;;;3.73;;
15022;SDS011;19850;49.576;10.880;2023-04-15T03:59:34;5.00;;;4.40;;
15022;SDS011;19850;49.576;10.880;2023-04-15T04:03:37;4.87;;;4.43;;
15022;SDS011;19850;49.576;10.880;2023-04-15T04:07:41;5.90;;;4.63;;
15022;SDS011;19850;49.576;10.880;2023-04-15T04:11:45;4.90;;;4.40;;
15022;SDS011;19850;49.576;10.880;2023-04-15T04:15:48;4.50;;;4.10;;
15022;SDS011;19850;49.576;10.880;2023-04-15T04:19:51;5.10;;;4.07;;
15022;SDS011;19850;49.576;10.880;2023-04-15T04:23:54;5.07;;;4.50;;
15022;SDS011;19850;49.576;10.880;2023-04-15T04:28:00;4.30;;;3.90;;
15022;SDS011;19850;49.576;10.880;2023-04-15T04:32:03;4.40;;;4.00;;
15022;SDS011;19850;49.576;10.880;2023-04-15T04:36:07;4.67;;;4.30;;
15022;SDS011;19850;49.576;10.880;2023-04-15T04:40:10;5.03;;;4.53;;
15022;SDS011;19850;49.576;10.880;2023-04-15T04:44:15;4.53;;;4.13;;
15022;SDS011;19850;49.576;10.880;2023-04-15T04:48:18;4.00;;;3.70;;
15022;SDS011;19850;49.576;10.880;2023-04-15T04:52:21;5.13;;;4.73;;
15022;SDS011;19850;49.576;10.880;2023-04-15T04:56:24;4.90;;;4.40;;
15022;SDS011;19850;49.576;10.880;2023-04-15T05:00:29;5.23;;;4.73;;
15022;SDS011;19850;49.576;10.880;2023-04-15T05:04:31;5.23;;;4.73;;
15022;SDS011;19850;49.576;10.880;2023-04-15T05:08:34;5.07;;;4.67;;
15022;SDS011;19850;49.576;10.880;2023-04-15T05:12:40;5.60;;;5.13;;
15022;SDS011;19850;49.576;10.880;2023-04-15T05:16:45;5.80;;;5.30;;
15022;SDS011;19850;49.576;10.880;2023-04-15T05:20:47;5.80;;;5.27;;
15022;SDS011;19850;49.576;10.880;2023-04-15T05:24:51;5.70;;;5.20;;
15022;SDS011;19850;49.576;10.880;2023-04-15T05:28:53;5.83;;;5.33;;
15022;SDS011;19850;49.576;10.880;2023-04-15T05:32:58;5.90;;;5.47;;
15022;SDS011;19850;49.576;10.880;2023-04-15T05:37:01;6.63;;;6.03;;
15022;SDS011;19850;49.576;10.880;2023-04-15T05:41:04;6.00;;;5.53;;
15022;SDS011;19850;49.576;10.880;2023-04-15T05:45:07;6.77;;;5.93;;
15022;SDS011;19850;49.576;10.880;2023-04-15T05:49:12;6.83;;;6.23;;
15022;SDS011;19850;49.576;10.880;2023-04-15T05:53:14;6.80;;;6.20;;
15022;SDS011;19850;49.576;10.880;2023-04-15T05:57:17;7.27;;;6.57;;
15022;SDS011;19850;49.576;10.880;2023-04-15T06:01:23;6.73;;;6.13;;
15022;SDS011;19850;49.576;10.880;2023-04-15T06:05:28;7.67;;;6.13;;
15022;SDS011;19850;49.576;10.880;2023-04-15T06:09:30;6.60;;;6.10;;
15022;SDS011;19850;49.576;10.880;2023-04-15T06:13:34;6.37;;;5.87;;
15022;SDS011;19850;49.576;10.880;2023-04-15T06:17:36;6.30;;;5.80;;
15022;SDS011;19850;49.576;10.880;2023-04-15T06:21:41;6.80;;;6.17;;
15022;SDS011;19850;49.576;10.880;2023-04-15T06:25:43;6.77;;;6.20;;
15022;SDS011;19850;49.576;10.880;2023-04-15T06:29:46;6.80;;;5.97;;
15022;SDS011;19850;49.576;10.880;2023-04-15T06:33:50;8.30;;;7.30;;
15022;SDS011;19850;49.576;10.880;2023-04-15T06:37:55;7.40;;;6.80;;
15022;SDS011;19850;49.576;10.880;2023-04-15T06:41:57;7.47;;;6.87;;
15022;SDS011;19850;49.576;10.880;2023-04-15T06:46:01;6.37;;;5.77;;
15022;SDS011;19850;49.576;10.880;2023-04-15T06:50:04;6.70;;;5.90;;
15022;SDS011;19850;49.576;10.880;2023-04-15T06:54:11;6.20;;;5.57;;
15022;SDS011;19850;49.576;10.880;2023-04-15T06:58:13;6.10;;;5.60;;
15022;SDS011;19850;49.576;10.880;2023-04-15T07:02:16;6.33;;;5.83;;
15022;SDS011;19850;49.576;10.880;2023-04-15T07:06:19;7.40;;;6.70;;
15022;SDS011;19850;49.576;10.880;2023-04-15T07:10:23;6.73;;;5.80;;
15022;SDS011;19850;49.576;10.880;2023-04-15T07:14:26;6.80;;;5.80;;
15022;SDS011;19850;49.576;10.880;2023-04-15T07:18:29;5.00;;;4.60;;
15022;SDS011;19850;49.576;10.880;2023-04-15T07:22:32;5.10;;;4.60;;
15022;SDS011;19850;49.576;10.880;2023-04-15T07:26:36;5.73;;;5.20;;
15022;SDS011;19850;49.576;10.880;2023-04-15T07:30:39;5.47;;;4.83;;
15022;SDS011;19850;49.576;10.880;2023-04-15T07:34:42;4.87;;;4.50;;
15022;SDS011;19850;49.576;10.880;2023-04-15T07:38:45;5.00;;;4.53;;
15022;SDS011;19850;49.576;10.880;2023-04-15T07:42:50;4.93;;;4.53;;
15022;SDS011;19850;49.576;10.880;2023-04-15T07:46:53;5.43;;;4.60;;
15022;SDS011;19850;49.576;10.880;2023-04-15T07:50:56;4.90;;;4.50;;
15022;SDS011;19850;49.576;10.880;2023-04-15T07:54:59;4.27;;;3.93;;
15022;SDS011;19850;49.576;10.880;2023-04-15T07:59:03;4.87;;;4.47;;
15022;SDS011;19850;49.576;10.880;2023-04-15T08:03:06;4.40;;;4.00;;
15022;SDS011;19850;49.576;10.880;2023-04-15T08:07:12;4.93;;;4.53;;
15022;SDS011;19850;49.576;10.880;2023-04-15T08:11:15;3.30;;;3.00;;
15022;SDS011;19850;49.576;10.880;2023-04-15T08:15:19;2.60;;;2.40;;
15022;SDS011;19850;49.576;10.880;2023-04-15T08:19:22;1.97;;;1.87;;
15022;SDS011;19850;49.576;10.880;2023-04-15T08:23:25;1.73;;;1.63;;
15022;SDS011;19850;49.576;10.880;2023-04-15T08:27:28;1.80;;;1.70;;
15022;SDS011;19850;49.576;10.880;2023-04-15T08:31:32;2.97;;;1.80;;
15022;SDS011;19850;49.576;10.880;2023-04-15T08:35:35;2.23;;;1.63;;
15022;SDS011;19850;49.576;10.880;2023-04-15T08:39:38;1.33;;;1.30;;
15022;SDS011;19850;49.576;10.880;2023-04-15T08:43:42;1.10;;;1.00;;
15022;SDS011;19850;49.576;10.880;2023-04-15T08:47:50;1.10;;;1.00;;
15022;SDS011;19850;49.576;10.880;2023-04-15T08:51:57;1.53;;;1.13;;
15022;SDS011;19850;49.576;10.880;2023-04-15T08:56:03;0.87;;;0.87;;
15022;SDS011;19850;49.576;10.880;2023-04-15T09:00:07;0.90;;;0.90;;
15022;SDS011;19850;49.576;10.880;2023-04-15T09:04:12;1.00;;;0.90;;
15022;SDS011;19850;49.576;10.880;2023-04-15T09:08:16;0.97;;;0.93;;
15022;SDS011;19850;49.576;10.880;2023-04-15T09:12:18;1.43;;;1.33;;
15022;SDS011;19850;49.576;10.880;2023-04-15T09:16:23;1.20;;;1.10;;
15022;SDS011;19850;49.576;10.880;2023-04-15T09:20:27;0.90;;;0.90;;
15022;SDS011;19850;49.576;10.880;2023-04-15T09:24:35;1.00;;;1.00;;
15022;SDS011;19850;49.576;10.880;2023-04-15T09:28:42;1.10;;;1.00;;
15022;SDS011;19850;49.576;10.880;2023-04-15T09:32:48;1.63;;;1.20;;
15022;SDS011;19850;49.576;10.880;2023-04-15T09:36:54;0.90;;;0.90;;
15022;SDS011;19850;49.576;10.880;2023-04-15T09:40:58;1.00;;;0.97;;
15022;SDS011;19850;49.576;10.880;2023-04-15T09:45:10;1.03;;;1.00;;
15022;SDS011;19850;49.576;10.880;2023-04-15T09:49:13;0.93;;;0.93;;
15022;SDS011;19850;49.576;10.880;2023-04-15T09:53:20;1.13;;;1.13;;
15022;SDS011;19850;49.576;10.880;2023-04-15T09:57:23;1.67;;;1.30;;
15022;SDS011;19850;49.576;10.880;2023-04-15T10:01:26;1.57;;;1.30;;
15022;SDS011;19850;49.576;10.880;2023-04-15T10:05:29;1.50;;;1.40;;
15022;SDS011;19850;49.576;10.880;2023-04-15T10:09:35;1.83;;;1.63;;
15022;SDS011;19850;49.576;10.880;2023-04-15T10:13:39;3.67;;;1.70;;
15022;SDS011;19850;49.576;10.880;2023-04-15T10:17:43;1.87;;;1.50;;
15022;SDS011;19850;49.576;10.880;2023-04-15T10:21:46;2.17;;;1.63;;
15022;SDS011;19850;49.576;10.880;2023-04-15T10:25:51;2.17;;;2.00;;
15022;SDS011;19850;49.576;10.880;2023-04-15T10:29:55;2.50;;;1.83;;
15022;SDS011;19850;49.576;10.880;2023-04-15T10:33:58;1.97;;;1.80;;
15022;SDS011;19850;49.576;10.880;2023-04-15T10:42:34;2.00;;;1.80;;
15022;SDS011;19850;49.576;10.880;2023-04-15T10:46:37;2.43;;;2.23;;
15022;SDS011;19850;49.576;10.880;2023-04-15T10:50:41;2.10;;;1.90;;
15022;SDS011;19850;49.576;10.880;2023-04-15T10:55:01;2.80;;;2.60;;
15022;SDS011;19850;49.576;10.880;2023-04-15T10:59:06;1.90;;;1.80;;
15022;SDS011;19850;49.576;10.880;2023-04-15T11:03:08;2.13;;;1.70;;
15022;SDS011;19850;49.576;10.880;2023-04-15T11:07:12;2.67;;;2.47;;
15022;SDS011;19850;49.576;10.880;2023-04-15T11:11:15;1.97;;;1.87;;
15022;SDS011;19850;49.576;10.880;2023-04-15T11:15:26;2.27;;;2.13;;
15022;SDS011;19850;49.576;10.880;2023-04-15T11:19:36;2.80;;;2.60;;
15022;SDS011;19850;49.576;10.880;2023-04-15T11:23:40;2.70;;;2.50;;
15022;SDS011;19850;49.576;10.880;2023-04-15T11:27:46;2.00;;;1.80;;
15022;SDS011;19850;49.576;10.880;2023-04-15T11:31:51;2.17;;;1.97;;
15022;SDS011;19850;49.576;10.880;2023-04-15T11:35:54;2.50;;;1.80;;
15022;SDS011;19850;49.576;10.880;2023-04-15T11:39:57;2.00;;;1.90;;
15022;SDS011;19850;49.576;10.880;2023-04-15T11:44:00;2.17;;;1.97;;
15022;SDS011;19850;49.576;10.880;2023-04-15T11:48:08;2.07;;;1.80;;
15022;SDS011;19850;49.576;10.880;2023-04-15T11:52:11;3.57;;;1.80;;
15022;SDS011;19850;49.576;10.880;2023-04-15T11:56:17;4.40;;;3.30;;
15022;SDS011;19850;49.576;10.880;2023-04-15T12:00:21;1.70;;;1.57;;
15022;SDS011;19850;49.576;10.880;2023-04-15T12:04:26;1.60;;;1.50;;
15022;SDS011;19850;49.576;10.880;2023-04-15T12:12:51;1.20;;;1.10;;
15022;SDS011;19850;49.576;10.880;2023-04-15T12:16:55;1.10;;;1.10;;
15022;SDS011;19850;49.576;10.880;2023-04-15T12:21:04;1.30;;;1.30;;
15022;SDS011;19850;49.576;10.880;2023-04-15T12:25:11;1.10;;;1.10;;
15022;SDS011;19850;49.576;10.880;2023-04-15T12:29:14;1.07;;;1.00;;
15022;SDS011;19850;49.576;10.880;2023-04-15T12:33:18;0.97;;;0.97;;
15022;SDS011;19850;49.576;10.880;2023-04-15T12:37:24;1.20;;;1.10;;
15022;SDS011;19850;49.576;10.880;2023-04-15T12:41:27;1.20;;;1.20;;
15022;SDS011;19850;49.576;10.880;2023-04-15T12:45:30;1.07;;;1.07;;
15022;SDS011;19850;49.576;10.880;2023-04-15T12:49:32;1.03;;;1.03;;
15022;SDS011;19850;49.576;10.880;2023-04-15T12:53:37;1.30;;;1.20;;
15022;SDS011;19850;49.576;10.880;2023-04-15T12:57:40;1.13;;;1.10;;
15022;SDS011;19850;49.576;10.880;2023-04-15T13:01:42;0.80;;;0.80;;
15022;SDS011;19850;49.576;10.880;2023-04-15T13:06:03;0.87;;;0.87;;
15022;SDS011;19850;49.576;10.880;2023-04-15T13:10:08;1.00;;;1.00;;
15022;SDS011;19850;49.576;10.880;2023-04-15T13:14:12;1.00;;;0.90;;
15022;SDS011;19850;49.576;10.880;2023-04-15T13:18:14;0.90;;;0.90;;
15022;SDS011;19850;49.576;10.880;2023-04-15T13:22:17;0.60;;;0.60;;
15022;SDS011;19850;49.576;10.880;2023-04-15T13:26:22;0.83;;;0.83;;
15022;SDS011;19850;49.576;10.880;2023-04-15T13:30:25;1.10;;;1.10;;
15022;SDS011;19850;49.576;10.880;2023-04-15T13:34:27;2.53;;;1.30;;
15022;SDS011;19850;49.576;10.880;2023-04-15T13:38:30;1.20;;;1.20;;
15022;SDS011;19850;49.576;10.880;2023-04-15T13:42:35;1.53;;;1.00;;
15022;SDS011;19850;49.576;10.880;2023-04-15T13:46:38;1.10;;;1.10;;
15022;SDS011;19850;49.576;10.880;2023-04-15T13:50:42;1.43;;;1.33;;
15022;SDS011;19850;49.576;10.880;2023-04-15T13:54:48;0.90;;;0.90;;
15022;SDS011;19850;49.576;10.880;2023-04-15T13:59:16;0.90;;;0.80;;
15022;SDS011;19850;49.576;10.880;2023-04-15T14:03:18;0.70;;;0.70;;
15022;SDS011;19850;49.576;10.880;2023-04-15T14:07:21;0.80;;;0.80;;
15022;SDS011;19850;49.576;10.880;2023-04-15T14:11:24;0.97;;;0.70;;
15022;SDS011;19850;49.576;10.880;2023-04-15T14:15:29;1.90;;;0.70;;
15022;SDS011;19850;49.576;10.880;2023-04-15T14:19:32;0.70;;;0.70;;
15022;SDS011;19850;49.576;10.880;2023-04-15T14:23:36;0.83;;;0.80;;
15022;SDS011;19850;49.576;10.880;2023-04-15T14:27:39;0.80;;;0.80;;
15022;SDS011;19850;49.576;10.880;2023-04-15T14:31:43;0.87;;;0.73;;
15022;SDS011;19850;49.576;10.880;2023-04-15T14:36:06;0.60;;;0.60;;
15022;SDS011;19850;49.576;10.880;2023-04-15T14:40:11;0.70;;;0.70;;
15022;SDS011;19850;49.576;10.880;2023-04-15T14:44:14;0.80;;;0.80;;
15022;SDS011;19850;49.576;10.880;2023-04-15T14:48:18;0.60;;;0.60;;
15022;SDS011;19850;49.576;10.880;2023-04-15T14:52:21;0.80;;;0.80;;
15022;SDS011;19850;49.576;10.880;2023-04-15T14:56:24;1.17;;;0.80;;
15022;SDS011;19850;49.576;10.880;2023-04-15T15:00:27;1.03;;;1.03;;
15022;SDS011;19850;49.576;10.880;2023-04-15T15:04:31;1.00;;;1.00;;
15022;SDS011;19850;49.576;10.880;2023-04-15T15:08:36;1.00;;;1.00;;
15022;SDS011;19850;49.576;10.880;2023-04-15T15:12:39;1.10;;;1.00;;
15022;SDS011;19850;49.576;10.880;2023-04-15T15:16:42;0.90;;;0.90;;
15022;SDS011;19850;49.576;10.880;2023-04-15T15:20:46;0.80;;;0.80;;
15022;SDS011;19850;49.576;10.880;2023-04-15T15:24:49;1.00;;;1.00;;
15022;SDS011;19850;49.576;10.880;2023-04-15T15:28:52;1.10;;;1.00;;
15022;SDS011;19850;49.576;10.880;2023-04-15T15:32:55;4.97;;;4.57;;
15022;SDS011;19850;49.576;10.880;2023-04-15T15:37:00;7.23;;;6.57;;
15022;SDS011;19850;49.576;10.880;2023-04-15T15:41:03;1.40;;;1.40;;
15022;SDS011;19850;49.576;10.880;2023-04-15T15:45:06;2.13;;;1.90;;
15022;SDS011;19850;49.576;10.880;2023-04-15T15:49:09;2.67;;;2.53;;
15022;SDS011;19850;49.576;10.880;2023-04-15T15:53:13;2.10;;;2.00;;
15022;SDS011;19850;49.576;10.880;2023-04-15T15:57:20;2.70;;;2.50;;
15022;SDS011;19850;49.576;10.880;2023-04-15T16:01:23;3.30;;;2.90;;
15022;SDS011;19850;49.576;10.880;2023-04-15T16:05:26;2.10;;;1.90;;
15022;SDS011;19850;49.576;10.880;2023-04-15T16:09:30;2.00;;;1.90;;
15022;SDS011;19850;49.576;10.880;2023-04-15T16:13:33;1.80;;;1.70;;
15022;SDS011;19850;49.576;10.880;2023-04-15T16:17:36;2.40;;;2.30;;
15022;SDS011;19850;49.576;10.880;2023-04-15T16:21:39;1.80;;;1.70;;
15022;SDS011;19850;49.576;10.880;2023-04-15T16:25:43;4.40;;;4.00;;
15022;SDS011;19850;49.576;10.880;2023-04-15T16:29:46;5.70;;;5.27;;
15022;SDS011;19850;49.576;10.880;2023-04-15T16:33:49;3.23;;;3.03;;
15022;SDS011;19850;49.576;10.880;2023-04-15T16:37:51;3.27;;;3.07;;
15022;SDS011;19850;49.576;10.880;2023-04-15T16:41:55;3.97;;;3.77;;
15022;SDS011;19850;49.576;10.880;2023-04-15T16:45:58;3.43;;;3.23;;
15022;SDS011;19850;49.576;10.880;2023-04-15T16:50:01;2.50;;;2.30;;
15022;SDS011;19850;49.576;10.880;2023-04-15T16:54:04;1.93;;;1.83;;
15022;SDS011;19850;49.576;10.880;2023-04-15T16:58:09;2.20;;;2.10;;
15022;SDS011;19850;49.576;10.880;2023-04-15T17:02:12;2.17;;;2.07;;
15022;SDS011;19850;49.576;10.880;2023-04-15T17:06:15;2.17;;;2.07;;
15022;SDS011;19850;49.576;10.880;2023-04-15T17:10:17;2.17;;;2.07;;
15022;SDS011;19850;49.576;10.880;2023-04-15T17:14:22;2.47;;;2.37;;
15022;SDS011;19850;49.576;10.880;2023-04-15T17:18:24;2.50;;;2.30;;
15022;SDS011;19850;49.576;10.880;2023-04-15T17:22:28;2.50;;;2.40;;
15022;SDS011;19850;49.576;10.880;2023-04-15T17:26:31;3.63;;;3.43;;
15022;SDS011;19850;49.576;10.880;2023-04-15T17:30:35;2.23;;;2.13;;
15022;SDS011;19850;49.576;10.880;2023-04-15T17:34:38;2.37;;;2.27;;
15022;SDS011;19850;49.576;10.880;2023-04-15T17:38:51;1.80;;;1.70;;
15022;SDS011;19850;49.576;10.880;2023-04-15T17:42:54;1.50;;;1.40;;
15022;SDS011;19850;49.576;10.880;2023-04-15T17:46:58;1.43;;;1.33;;
15022;SDS011;19850;49.576;10.880;2023-04-15T17:51:01;1.50;;;1.40;;
15022;SDS011;19850;49.576;10.880;2023-04-15T17:55:04;1.57;;;1.47;;
15022;SDS011;19850;49.576;10.880;2023-04-15T17:59:07;2.40;;;2.20;;
15022;SDS011;19850;49.576;10.880;2023-04-15T18:03:12;2.53;;;2.33;;
15022;SDS011;19850;49.576;10.880;2023-04-15T18:07:15;2.63;;;2.33;;
15022;SDS011;19850;49.576;10.880;2023-04-15T18:11:18;2.73;;;2.53;;
15022;SDS011;19850;49.576;10.880;2023-04-15T18:15:21;2.93;;;2.30;;
15022;SDS011;19850;49.576;10.880;2023-04-15T18:19:25;1.73;;;1.63;;
15022;SDS011;19850;49.576;10.880;2023-04-15T18:23:28;2.00;;;1.90;;
15022;SDS011;19850;49.576;10.880;2023-04-15T18:27:31;4.33;;;1.90;;
15022;SDS011;19850;49.576;10.880;2023-04-15T18:31:35;4.00;;;1.40;;
15022;SDS011;19850;49.576;10.880;2023-04-15T18:35:39;1.47;;;1.40;;
15022;SDS011;19850;49.576;10.880;2023-04-15T18:39:43;1.17;;;1.13;;
15022;SDS011;19850;49.576;10.880;2023-04-15T18:43:46;1.00;;;1.00;;
15022;SDS011;19850;49.576;10.880;2023-04-15T18:47:49;1.63;;;1.53;;
15022;SDS011;19850;49.576;10.880;2023-04-15T18:51:53;4.23;;;3.27;;
15022;SDS011;19850;49.576;10.880;2023-04-15T18:55:56;3.97;;;2.30;;
15022;SDS011;19850;49.576;10.880;2023-04-15T19:00:02;1.57;;;1.47;;
15022;SDS011;19850;49.576;10.880;2023-04-15T19:04:05;0.87;;;0.87;;
15022;SDS011;19850;49.576;10.880;2023-04-15T19:08:10;0.80;;;0.80;;
15022;SDS011;19850;49.576;10.880;2023-04-15T19:12:13;0.97;;;0.90;;
15022;SDS011;19850;49.576;10.880;2023-04-15T19:16:16;0.77;;;0.77;;
15022;SDS011;19850;49.576;10.880;2023-04-15T19:20:21;0.90;;;0.90;;
15022;SDS011;19850;49.576;10.880;2023-04-15T19:24:25;0.80;;;0.80;;
15022;SDS011;19850;49.576;10.880;2023-04-15T19:28:28;0.80;;;0.80;;
15022;SDS011;19850;49.576;10.880;2023-04-15T19:32:31;1.17;;;0.80;;
15022;SDS011;19850;49.576;10.880;2023-04-15T19:36:34;0.90;;;0.90;;
15022;SDS011;19850;49.576;10.880;2023-04-15T19:40:38;1.50;;;1.20;;
15022;SDS011;19850;49.576;10.880;2023-04-15T19:44:41;2.03;;;1.70;;
15022;SDS011;19850;49.576;10.880;2023-04-15T19:48:44;5.37;;;4.87;;
15022;SDS011;19850;49.576;10.880;2023-04-15T19:52:49;9.37;;;7.37;;
15022;SDS011;19850;49.576;10.880;2023-04-15T19:56:54;5.00;;;4.60;;
15022;SDS011;19850;49.576;10.880;2023-04-15T20:00:59;3.03;;;2.83;;
15022;SDS011;19850;49.576;10.880;2023-04-15T20:05:05;2.60;;;2.40;;
15022;SDS011;19850;49.576;10.880;2023-04-15T20:09:12;1.53;;;1.43;;
15022;SDS011;19850;49.576;10.880;2023-04-15T20:13:16;1.47;;;1.37;;
15022;SDS011;19850;49.576;10.880;2023-04-15T20:17:19;1.40;;;1.30;;
15022;SDS011;19850;49.576;10.880;2023-04-15T20:21:22;1.63;;;1.40;;
15022;SDS011;19850;49.576;10.880;2023-04-15T20:25:25;2.47;;;1.90;;
15022;SDS011;19850;49.576;10.880;2023-04-15T20:29:29;2.40;;;2.20;;
15022;SDS011;19850;49.576;10.880;2023-04-15T20:33:32;1.97;;;1.87;;
15022;SDS011;19850;49.576;10.880;2023-04-15T20:37:37;2.60;;;2.40;;
15022;SDS011;19850;49.576;10.880;2023-04-15T20:41:40;3.30;;;2.53;;
15022;SDS011;19850;49.576;10.880;2023-04-15T20:45:44;2.77;;;2.20;;
15022;SDS011;19850;49.576;10.880;2023-04-15T20:49:47;3.13;;;2.50;;
15022;SDS011;19850;49.576;10.880;2023-04-15T20:53:50;2.50;;;2.30;;
15022;SDS011;19850;49.576;10.880;2023-04-15T20:57:53;1.90;;;1.80;;
15022;SDS011;19850;49.576;10.880;2023-04-15T21:01:58;2.90;;;2.30;;
15022;SDS011;19850;49.576;10.880;2023-04-15T21:06:01;2.30;;;2.20;;
15022;SDS011;19850;49.576;10.880;2023-04-15T21:10:05;2.10;;;2.00;;
15022;SDS011;19850;49.576;10.880;2023-04-15T21:14:08;2.37;;;1.90;;
15022;SDS011;19850;49.576;10.880;2023-04-15T21:18:12;1.97;;;1.87;;
15022;SDS011;19850;49.576;10.880;2023-04-15T21:22:15;2.00;;;1.90;;
15022;SDS011;19850;49.576;10.880;2023-04-15T21:26:18;2.10;;;2.00;;
15022;SDS011;19850;49.576;10.880;2023-04-15T21:30:21;2.23;;;2.13;;
15022;SDS011;19850;49.576;10.880;2023-04-15T21:34:25;2.40;;;2.20;;
15022;SDS011;19850;49.576;10.880;2023-04-15T21:38:28;2.17;;;2.07;;
15022;SDS011;19850;49.576;10.880;2023-04-15T21:42:31;2.40;;;2.30;;
15022;SDS011;19850;49.576;10.880;2023-04-15T21:46:33;2.23;;;2.13;;
15022;SDS011;19850;49.576;10.880;2023-04-15T21:50:38;2.00;;;1.90;;
15022;SDS011;19850;49.576;10.880;2023-04-15T21:54:41;2.00;;;1.90;;
15022;SDS011;19850;49.576;10.880;2023-04-15T21:58:44;2.03;;;1.93;;
15022;SDS011;19850;49.576;10.880;2023-04-15T22:02:46;2.30;;;2.10;;
15022;SDS011;19850;49.576;10.880;2023-04-15T22:06:51;2.20;;;2.10;;
15022;SDS011;19850;49.576;10.880;2023-04-15T22:10:55;2.50;;;2.40;;
15022;SDS011;19850;49.576;10.880;2023-04-15T22:14:58;2.50;;;2.40;;
15022;SDS011;19850;49.576;10.880;2023-04-15T22:19:01;2.50;;;2.30;;
15022;SDS011;19850;49.576;10.880;2023-04-15T22:23:06;2.50;;;2.40;;
15022;SDS011;19850;49.576;10.880;2023-04-15T22:27:10;2.37;;;2.27;;
15022;SDS011;19850;49.576;10.880;2023-04-15T22:31:12;2.67;;;2.57;;
15022;SDS011;19850;49.576;10.880;2023-04-15T22:35:18;2.87;;;2.67;;
15022;SDS011;19850;49.576;10.880;2023-04-15T22:39:22;3.00;;;2.80;;
15022;SDS011;19850;49.576;10.880;2023-04-15T22:43:24;2.80;;;2.60;;
15022;SDS011;19850;49.576;10.880;2023-04-15T22:47:27;2.80;;;2.70;;
15022;SDS011;19850;49.576;10.880;2023-04-15T22:51:30;3.07;;;2.87;;
15022;SDS011;19850;49.576;10.880;2023-04-15T22:55:35;3.20;;;3.00;;
15022;SDS011;19850;49.576;10.880;2023-04-15T22:59:38;2.90;;;2.70;;
15022;SDS011;19850;49.576;10.880;2023-04-15T23:03:40;3.30;;;3.00;;
15022;SDS011;19850;49.576;10.880;2023-04-15T23:07:59;3.17;;;2.97;;
15022;SDS011;19850;49.576;10.880;2023-04-15T23:12:03;3.30;;;3.10;;
15022;SDS011;19850;49.576;10.880;2023-04-15T23:16:06;3.10;;;2.90;;
15022;SDS011;19850;49.576;10.880;2023-04-15T23:20:09;3.27;;;3.10;;
15022;SDS011;19850;49.576;10.880;2023-04-15T23:24:13;3.23;;;3.03;;
15022;SDS011;19850;49.576;10.880;2023-04-15T23:28:18;3.37;;;3.10;;
15022;SDS011;19850;49.576;10.880;2023-04-15T23:32:23;3.70;;;2.80;;
15022;SDS011;19850;49.576;10.880;2023-04-15T23:36:25;3.30;;;3.10;;
15022;SDS011;19850;49.576;10.880;2023-04-15T23:40:28;3.27;;;3.07;;
15022;SDS011;19850;49.576;10.880;2023-04-15T23:44:32;3.40;;;3.20;;
15022;SDS011;19850;49.576;10.880;2023-04-15T23:48:35;3.23;;;3.03;;
15022;SDS011;19850;49.576;10.880;2023-04-15T23:52:37;3.47;;;3.20;;
15022;SDS011;19850;49.576;10.880;2023-04-15T23:56:40;3.77;;;3.50;;
